Hlavní strana
METAR-TAF:

METAR-TAF

Letiště :

Glasgow Municipal Airport

Glasgow, Kentucky, Spojené státy americké

zeměpisná šířka: 37-01-54N, zeměpisná délka: 085-57-13W, výška: 218 m

Aktuální stav počasí

Zpráva byla vytvořena před 26 minutami, v 00:50 UTC
Bezvětří
Teplota 23°C
Vlhkost vzduchu 83%
Tlak 1015 hPa
Viditelnost: 16.1 km
Polojasno ve výšce 3000 ft
Oblačno až skoro zataženo ve výšce 4300 ft
Zataženo ve výšce 5000 ft

METAR: KGLW 220050Z AUTO 00000KT 10SM SCT030 BKN043 OVC050 23/20 A2997 RMK AO2 T02310204

Čas: 20:16 (01:16 UTC)


TAF: chybějící

Stav a předpovědi počasí z více než 4 000 letišť (zprávy METAR a TAF).

Červené a žluté tečky na mapě představují dostupné meteorologické stanice.

Když kurzor umístíte na tečku, zobrazí se název stanice.

Pak kliknutím zobrazíte stav a předpověď počasí.

Chcete-li změnit mapu, kliknutím na zelené tlačítko se znaménkem +mapu přiblížíte, kliknutím na zelené tlačítko se znaménkem – mapu oddálíte a kliknutím na zelené šipky přejdete na sousední mapy.


METAR-TAF: